createdAt,value
2022-12-26T00:00:23.559Z,99654.41
2022-12-26T00:02:50.553Z,99648.65
2022-12-26T00:05:17.720Z,99647.93
2022-12-26T00:07:44.765Z,99644.83
2022-12-26T00:10:11.626Z,99644.85
2022-12-26T00:12:38.553Z,99650.27
2022-12-26T00:15:06.211Z,99655.36
2022-12-26T00:17:35.120Z,99654.70
2022-12-26T00:20:02.076Z,99656.89
2022-12-26T00:22:29.200Z,99659.84
2022-12-26T00:24:56.119Z,99663.13
2022-12-26T00:27:23.108Z,99667.94
2022-12-26T00:29:50.129Z,99665.30
2022-12-26T00:32:17.323Z,99668.09
2022-12-26T00:34:44.180Z,99662.90
2022-12-26T00:37:11.089Z,99665.34
2022-12-26T00:39:37.938Z,99661.72
2022-12-26T00:42:04.963Z,99658.52
2022-12-26T00:44:31.930Z,99658.65
2022-12-26T00:46:58.906Z,99656.16
2022-12-26T00:49:25.965Z,99659.28
2022-12-26T00:51:52.863Z,99656.11
2022-12-26T00:54:19.765Z,99652.62
2022-12-26T00:56:46.565Z,99652.02
2022-12-26T00:59:13.472Z,99656.59
2022-12-26T01:01:40.563Z,99662.09
2022-12-26T01:04:07.618Z,99657.56
2022-12-26T01:06:34.519Z,99652.16
2022-12-26T01:09:01.716Z,99649.30
2022-12-26T01:11:40.904Z,99648.66
2022-12-26T01:14:13.261Z,99652.13
2022-12-26T01:16:41.131Z,99648.20
2022-12-26T01:19:08.296Z,99646.75
2022-12-26T01:21:35.301Z,99642.92
2022-12-26T01:24:04.465Z,99640.65
2022-12-26T01:26:31.300Z,99638.54
2022-12-26T01:28:58.915Z,99629.75
2022-12-26T01:31:25.899Z,99625.88
2022-12-26T01:33:52.901Z,99624.99
2022-12-26T01:36:19.799Z,99621.13
2022-12-26T01:38:46.903Z,99620.02
2022-12-26T01:41:17.114Z,99623.55
2022-12-26T01:43:47.397Z,99626.00
2022-12-26T01:46:15.550Z,99623.20
2022-12-26T01:48:42.572Z,99625.47
2022-12-26T01:51:09.719Z,99625.23
2022-12-26T01:53:38.916Z,99624.86
2022-12-26T01:56:11.964Z,99626.35
2022-12-26T01:58:47.983Z,99627.53
2022-12-26T02:01:15.111Z,99630.20
2022-12-26T02:04:01.924Z,99635.95
2022-12-26T02:06:28.974Z,99634.04
2022-12-26T02:08:55.956Z,99638.43
2022-12-26T02:11:29.018Z,99639.18
2022-12-26T02:13:55.946Z,99642.80
2022-12-26T02:16:22.845Z,99640.30
2022-12-26T02:18:49.751Z,99632.07
2022-12-26T02:21:32.158Z,99620.91
2022-12-26T02:24:37.224Z,99617.20
2022-12-26T02:27:21.303Z,99613.63
2022-12-26T02:30:23.755Z,99605.81
2022-12-26T02:33:15.116Z,99599.44
2022-12-26T02:36:12.816Z,99597.23
2022-12-26T02:39:45.015Z,99592.92
2022-12-26T02:42:50.590Z,99590.33
2022-12-26T02:45:49.606Z,99594.77
2022-12-26T02:48:20.308Z,99600.00
2022-12-26T02:51:11.793Z,99597.87
2022-12-26T02:54:10.463Z,99597.23
2022-12-26T02:56:58.217Z,99601.94
2022-12-26T02:59:53.981Z,99608.61
2022-12-26T03:03:02.014Z,99611.38
2022-12-26T03:05:59.785Z,99613.94
2022-12-26T03:09:11.367Z,99614.93
2022-12-26T03:11:59.131Z,99611.19
2022-12-26T03:14:30.041Z,99609.53
2022-12-26T03:17:19.717Z,99604.80
2022-12-26T03:20:02.330Z,99603.11
2022-12-26T03:22:55.073Z,99595.44
2022-12-26T03:25:51.405Z,99593.52
2022-12-26T03:28:18.568Z,99587.02
2022-12-26T03:30:52.277Z,99580.60
2022-12-26T03:33:41.141Z,99581.66
2022-12-26T03:36:10.857Z,99577.56
2022-12-26T03:39:07.849Z,99579.58
2022-12-26T03:42:00.483Z,99577.58
2022-12-26T03:44:56.657Z,99574.38
2022-12-26T03:47:59.551Z,99564.26
2022-12-26T03:51:17.521Z,99567.38
2022-12-26T03:54:08.800Z,99573.01
2022-12-26T03:57:04.735Z,99577.13
2022-12-26T04:00:27.380Z,99587.08
2022-12-26T04:03:15.335Z,99589.52
2022-12-26T04:06:02.222Z,99586.95
2022-12-26T04:08:53.132Z,99589.84
2022-12-26T04:11:38.923Z,99585.38
2022-12-26T04:14:42.789Z,99583.11
2022-12-26T04:17:41.124Z,99578.90
2022-12-26T04:20:44.096Z,99577.03
2022-12-26T04:23:47.470Z,99574.75
2022-12-26T04:26:48.587Z,99572.38
2022-12-26T04:29:34.562Z,99584.09
2022-12-26T04:32:37.228Z,99589.56
2022-12-26T04:35:24.882Z,99588.23
2022-12-26T04:38:10.633Z,99573.13
2022-12-26T04:41:00.205Z,99571.41
2022-12-26T04:43:46.851Z,99580.99
2022-12-26T04:46:17.889Z,99585.04
2022-12-26T04:49:04.454Z,99590.06
2022-12-26T04:51:31.287Z,99596.69
2022-12-26T04:53:58.254Z,99603.82
2022-12-26T04:56:25.153Z,99600.15
2022-12-26T04:58:52.047Z,99597.21
2022-12-26T05:01:38.057Z,99601.80
2022-12-26T05:19:19.093Z,99581.38
2022-12-26T05:22:05.029Z,99583.16
2022-12-26T05:24:53.739Z,99578.33
2022-12-26T05:27:39.632Z,99575.38
2022-12-26T05:30:07.779Z,99575.21
2022-12-26T05:32:53.691Z,99571.13
2022-12-26T05:35:20.596Z,99566.88
2022-12-26T05:37:47.588Z,99567.82
2022-12-26T05:40:14.630Z,99566.42
2022-12-26T05:42:41.586Z,99565.12
2022-12-26T05:45:09.234Z,99562.30
2022-12-26T05:47:36.206Z,99555.96
2022-12-26T05:50:03.651Z,99549.09
2022-12-26T05:52:30.630Z,99547.59
2022-12-26T05:54:57.544Z,99545.80
2022-12-26T05:57:24.675Z,99540.05
2022-12-26T05:59:51.555Z,99541.73
2022-12-26T06:02:18.525Z,99539.37
2022-12-26T06:04:45.617Z,99534.52
2022-12-26T06:07:12.574Z,99536.31
2022-12-26T06:09:39.708Z,99534.86
2022-12-26T06:12:06.577Z,99542.63
2022-12-26T06:14:33.597Z,99546.96
2022-12-26T06:17:00.637Z,99548.61
2022-12-26T06:19:27.589Z,99545.31
2022-12-26T06:21:54.512Z,99546.42
2022-12-26T06:24:21.388Z,99547.33
2022-12-26T06:26:49.835Z,99546.92
2022-12-26T06:29:16.733Z,99539.27
2022-12-26T06:31:43.789Z,99534.11
2022-12-26T06:34:11.105Z,99526.98
2022-12-26T06:36:38.141Z,99523.27
2022-12-26T06:39:05.160Z,99525.75
2022-12-26T06:41:32.167Z,99536.34
2022-12-26T06:44:00.200Z,99542.27
2022-12-26T06:46:27.342Z,99540.47
2022-12-26T06:48:54.466Z,99538.36
2022-12-26T06:51:23.637Z,99539.02
2022-12-26T06:53:51.295Z,99534.35
2022-12-26T06:56:20.047Z,99529.41
2022-12-26T06:58:47.360Z,99529.13
2022-12-26T07:01:16.608Z,99533.13
2022-12-26T07:03:50.795Z,99535.58
2022-12-26T07:06:29.760Z,99536.10
2022-12-26T07:08:58.758Z,99534.30
2022-12-26T07:11:27.536Z,99530.67
2022-12-26T07:13:54.978Z,99529.11
2022-12-26T07:16:22.836Z,99528.02
2022-12-26T07:18:52.474Z,99525.29
2022-12-26T07:21:19.369Z,99518.48
2022-12-26T07:23:46.269Z,99510.58
2022-12-26T07:26:13.176Z,99506.99
2022-12-26T07:28:40.153Z,99510.36
2022-12-26T07:31:07.488Z,99513.59
2022-12-26T07:33:35.046Z,99516.25
2022-12-26T07:36:06.108Z,99521.95
2022-12-26T07:38:33.545Z,99520.34
2022-12-26T07:41:20.467Z,99528.48
2022-12-26T07:43:47.300Z,99533.35
2022-12-26T07:46:14.296Z,99538.51
2022-12-26T07:48:41.209Z,99539.73
2022-12-26T07:51:08.131Z,99544.64
2022-12-26T07:53:35.203Z,99545.33
2022-12-26T07:56:02.233Z,99549.88
2022-12-26T07:58:29.174Z,99553.99
2022-12-26T08:00:56.313Z,99552.23
2022-12-26T08:03:23.684Z,99548.05
2022-12-26T08:05:51.024Z,99545.58
2022-12-26T08:08:17.932Z,99549.36
2022-12-26T08:10:44.893Z,99554.67
2022-12-26T08:13:11.767Z,99554.63
2022-12-26T08:15:39.842Z,99548.80
2022-12-26T08:18:07.288Z,99549.77
2022-12-26T08:20:34.193Z,99552.44
2022-12-26T08:23:01.106Z,99549.82
2022-12-26T08:25:28.128Z,99553.56
2022-12-26T08:27:55.168Z,99559.55
2022-12-26T08:30:23.788Z,99559.20
2022-12-26T08:32:51.734Z,99559.95
2022-12-26T08:35:18.658Z,99561.42
2022-12-26T08:37:47.315Z,99560.24
2022-12-26T08:40:15.623Z,99564.08
2022-12-26T08:43:11.702Z,99564.08
2022-12-26T08:45:33.625Z,99566.48
2022-12-26T08:48:03.386Z,99561.83
2022-12-26T08:50:30.293Z,99557.43
2022-12-26T08:52:57.181Z,99550.16
2022-12-26T08:55:24.304Z,99548.86
2022-12-26T08:57:51.269Z,99542.46
2022-12-26T09:00:18.611Z,99535.41
2022-12-26T09:02:45.686Z,99523.95
2022-12-26T09:05:13.536Z,99520.20
2022-12-26T09:07:40.445Z,99525.71
2022-12-26T09:10:07.632Z,99521.75
2022-12-26T09:12:34.553Z,99515.36
2022-12-26T09:15:01.963Z,99506.61
2022-12-26T09:17:29.002Z,99509.63
2022-12-26T09:19:56.130Z,99502.71
2022-12-26T09:22:42.938Z,99501.44
2022-12-26T09:25:09.831Z,99496.15
2022-12-26T09:27:37.369Z,99498.23
2022-12-26T09:30:05.117Z,99494.64
2022-12-26T09:32:35.748Z,99480.22
2022-12-26T09:35:03.091Z,99479.52
2022-12-26T09:37:29.966Z,99462.39
2022-12-26T09:39:57.083Z,99450.07
2022-12-26T09:42:31.273Z,99452.00
2022-12-26T09:45:20.058Z,99455.64
2022-12-26T09:48:05.966Z,99446.36
2022-12-26T09:50:42.890Z,99440.51
2022-12-26T09:53:42.001Z,99436.73
2022-12-26T09:56:23.681Z,99433.58
2022-12-26T09:59:07.977Z,99434.96
2022-12-26T10:01:36.165Z,99441.03
2022-12-26T10:04:28.616Z,99448.89
2022-12-26T10:07:09.244Z,99447.48
2022-12-26T10:09:48.557Z,99441.34
2022-12-26T10:12:38.801Z,99440.40
2022-12-26T10:15:31.957Z,99441.30
2022-12-26T10:18:11.461Z,99443.76
2022-12-26T10:21:04.010Z,99440.13
2022-12-26T10:23:45.661Z,99442.38
2022-12-26T10:26:23.508Z,99435.56
2022-12-26T10:28:55.155Z,99420.58
2022-12-26T10:31:52.113Z,99406.31
2022-12-26T10:34:36.692Z,99404.56
2022-12-26T10:37:31.195Z,99398.96
2022-12-26T10:39:58.040Z,99386.06
2022-12-26T10:42:30.463Z,99378.52
2022-12-26T10:45:00.757Z,99360.75
2022-12-26T10:47:34.940Z,99345.58
2022-12-26T10:50:02.660Z,99341.48
2022-12-26T10:52:35.390Z,99332.96
2022-12-26T10:55:28.055Z,99327.94
2022-12-26T10:57:51.590Z,99324.73
2022-12-26T11:00:24.030Z,99331.64
2022-12-26T11:03:11.385Z,99332.20
2022-12-26T11:08:43.860Z,99311.30
2022-12-26T11:11:16.942Z,99310.34
2022-12-26T11:13:51.569Z,99315.52
2022-12-26T11:16:45.039Z,99325.16
2022-12-26T11:19:27.138Z,99326.72
2022-12-26T11:21:54.128Z,99322.39
2022-12-26T11:24:21.234Z,99319.59
2022-12-26T11:26:48.392Z,99319.91
2022-12-26T11:29:16.443Z,99321.72
2022-12-26T11:32:04.179Z,99326.43
2022-12-26T11:34:37.719Z,99329.08
2022-12-26T11:37:05.247Z,99326.80
2022-12-26T11:39:35.043Z,99314.57
2022-12-26T11:42:12.203Z,99318.34
2022-12-26T11:44:41.997Z,99324.58
2022-12-26T11:47:13.293Z,99323.81
2022-12-26T11:49:49.856Z,99318.30
2022-12-26T11:52:43.142Z,99314.61
2022-12-26T11:55:22.392Z,99313.70
2022-12-26T11:58:06.727Z,99304.36
2022-12-26T12:00:44.214Z,99303.52
2022-12-26T12:03:16.401Z,99305.05
2022-12-26T12:06:02.267Z,99302.77
2022-12-26T12:08:44.661Z,99296.39
2022-12-26T12:11:33.816Z,99291.35
2022-12-26T12:14:26.061Z,99292.34
2022-12-26T12:17:11.749Z,99288.70
2022-12-26T12:19:57.649Z,99282.40
2022-12-26T12:22:46.585Z,99280.27
2022-12-26T12:25:36.076Z,99274.42
2022-12-26T12:28:31.537Z,99276.64
2022-12-26T12:31:15.051Z,99277.88
2022-12-26T12:33:51.855Z,99274.86
2022-12-26T12:36:24.601Z,99272.13
2022-12-26T12:39:00.731Z,99277.23
2022-12-26T12:41:34.417Z,99275.88
2022-12-26T12:44:05.748Z,99273.23
2022-12-26T12:46:38.817Z,99278.88
2022-12-26T12:49:36.000Z,99263.25
2022-12-26T12:52:43.511Z,99254.23
2022-12-26T12:55:22.969Z,99251.60
2022-12-26T12:57:54.617Z,99257.30
2022-12-26T13:00:24.380Z,99259.21
2022-12-26T13:03:05.605Z,99248.05
2022-12-26T13:05:45.403Z,99234.52
2022-12-26T13:08:37.898Z,99221.73
2022-12-26T13:11:22.344Z,99217.85
2022-12-26T13:13:55.442Z,99211.46
2022-12-26T13:16:25.421Z,99208.95
2022-12-26T13:19:01.920Z,99209.06
2022-12-26T13:21:29.684Z,99193.33
2022-12-26T13:24:25.315Z,99172.63
2022-12-26T13:26:59.260Z,99158.73
2022-12-26T13:29:32.132Z,99153.56
2022-12-26T13:31:59.425Z,99170.80
2022-12-26T13:34:26.952Z,99176.53
2022-12-26T13:36:55.999Z,99185.88
2022-12-26T13:39:25.995Z,99184.77
2022-12-26T13:42:20.923Z,99183.86
2022-12-26T13:44:53.454Z,99161.83
2022-12-26T13:47:38.005Z,99168.89
2022-12-26T13:50:47.192Z,99172.85
2022-12-26T13:53:26.016Z,99194.38
2022-12-26T13:56:03.476Z,99193.83
2022-12-26T13:58:48.986Z,99190.98
2022-12-26T14:01:31.792Z,99184.83
2022-12-26T14:04:20.954Z,99176.36
2022-12-26T14:07:28.987Z,99165.55
2022-12-26T14:10:10.607Z,99144.05
2022-12-26T14:12:50.303Z,99133.02
2022-12-26T14:15:30.634Z,99133.86
2022-12-26T14:18:19.836Z,99145.59
2022-12-26T14:20:49.947Z,99147.69
2022-12-26T14:23:42.042Z,99145.29
2022-12-26T14:26:47.256Z,99138.61
2022-12-26T14:29:29.828Z,99134.11
2022-12-26T14:32:15.722Z,99127.02
2022-12-26T14:34:48.070Z,99125.34
2022-12-26T14:37:46.067Z,99122.23
2022-12-26T14:40:22.507Z,99099.13
2022-12-26T14:43:11.214Z,99096.17
2022-12-26T14:45:38.306Z,99092.07
2022-12-26T14:48:17.646Z,99095.23
2022-12-26T14:50:51.649Z,99104.91
2022-12-26T14:53:24.670Z,99095.02
2022-12-26T14:56:01.846Z,99086.70
2022-12-26T14:58:31.869Z,99082.23
2022-12-26T15:01:15.975Z,99070.65
2022-12-26T15:04:01.507Z,99062.24
2022-12-26T15:06:50.612Z,99064.70
2022-12-26T15:09:55.185Z,99070.52
2022-12-26T15:12:58.735Z,99056.90
2022-12-26T15:15:52.388Z,99044.79
2022-12-26T15:18:43.408Z,99043.45
2022-12-26T15:21:22.910Z,99049.23
2022-12-26T15:23:55.849Z,99051.55
2022-12-26T15:26:40.985Z,99046.52
2022-12-26T15:29:26.447Z,99049.08
2022-12-26T15:31:56.275Z,99052.45
2022-12-26T15:34:41.967Z,99062.94
2022-12-26T15:37:43.491Z,99059.02
2022-12-26T15:40:23.361Z,99060.81
2022-12-26T15:42:54.378Z,99054.02
2022-12-26T15:45:39.549Z,99047.11
2022-12-26T15:48:28.418Z,99045.60
2022-12-26T15:51:01.291Z,99041.19
2022-12-26T15:53:47.600Z,99041.13
2022-12-26T15:56:44.922Z,99043.64
2022-12-26T15:59:24.455Z,99038.36
2022-12-26T16:01:54.111Z,99031.20
2022-12-26T16:04:29.158Z,99025.75
2022-12-26T16:07:28.959Z,99030.11
2022-12-26T16:09:57.990Z,99030.02
2022-12-26T16:12:34.273Z,99026.02
2022-12-26T16:15:10.495Z,99023.33
2022-12-26T16:17:38.438Z,99026.62
2022-12-26T16:20:50.760Z,99017.23
2022-12-26T16:23:19.361Z,99004.38
2022-12-26T16:25:48.016Z,99003.57
2022-12-26T16:28:21.724Z,99012.55
2022-12-26T16:30:48.834Z,99006.16
2022-12-26T16:33:15.955Z,99000.25
2022-12-26T16:35:43.369Z,98999.02
2022-12-26T16:38:18.782Z,98995.38
2022-12-26T16:40:50.592Z,98999.01
2022-12-26T16:43:31.244Z,98996.79
2022-12-26T16:46:00.609Z,98995.62
2022-12-26T16:48:29.242Z,98982.63
2022-12-26T16:51:07.550Z,98979.31
2022-12-26T16:53:40.617Z,98964.40
2022-12-26T16:56:27.138Z,98961.77
2022-12-26T16:59:06.898Z,98955.41
2022-12-26T17:01:34.313Z,98943.09
2022-12-26T17:04:24.608Z,98946.48
2022-12-26T17:06:55.350Z,98942.20
2022-12-26T17:09:23.312Z,98937.92
2022-12-26T17:12:09.561Z,98940.20
2022-12-26T17:14:38.704Z,98939.51
2022-12-26T17:17:22.153Z,98931.64
2022-12-26T17:19:54.480Z,98930.02
2022-12-26T17:22:31.494Z,98924.69
2022-12-26T17:25:18.105Z,98923.54
2022-12-26T17:27:45.354Z,98927.25
2022-12-26T17:30:28.888Z,98918.23
2022-12-26T17:32:56.409Z,98902.30
2022-12-26T17:35:25.849Z,98901.09
2022-12-26T17:38:04.055Z,98906.89
2022-12-26T17:40:34.583Z,98912.20
2022-12-26T17:43:21.862Z,98914.11
2022-12-26T17:45:48.989Z,98910.20
2022-12-26T17:48:15.824Z,98920.48
2022-12-26T17:50:44.811Z,98926.17
2022-12-26T17:53:33.444Z,98920.58
2022-12-26T17:56:06.960Z,98923.66
2022-12-26T17:58:37.565Z,98934.83
2022-12-26T18:01:04.904Z,98926.27
2022-12-26T18:03:31.972Z,98918.98
2022-12-26T18:05:58.964Z,98911.26
2022-12-26T18:08:42.610Z,98911.70
2022-12-26T18:11:10.438Z,98917.87
2022-12-26T18:13:37.973Z,98925.58
2022-12-26T18:16:05.755Z,98926.57
2022-12-26T18:18:40.193Z,98925.13
2022-12-26T18:21:11.587Z,98916.95
2022-12-26T18:23:41.161Z,98916.14
2022-12-26T18:26:21.248Z,98914.29
2022-12-26T18:28:49.339Z,98915.17
2022-12-26T18:31:16.860Z,98909.61
2022-12-26T18:33:44.367Z,98896.59
2022-12-26T18:36:15.005Z,98891.36
2022-12-26T18:38:42.044Z,98881.48
2022-12-26T18:41:13.702Z,98882.45
2022-12-26T18:43:40.645Z,98877.05
2022-12-26T18:46:19.977Z,98873.23
2022-12-26T18:48:47.626Z,98878.49
2022-12-26T18:51:14.680Z,98877.08
2022-12-26T18:53:41.602Z,98883.02
2022-12-26T18:56:13.441Z,98877.14
2022-12-26T18:58:40.317Z,98877.98
2022-12-26T19:01:07.263Z,98865.95
2022-12-26T19:03:36.067Z,98866.59
2022-12-26T19:06:03.618Z,98852.17
2022-12-26T19:08:30.950Z,98847.67
2022-12-26T19:10:57.916Z,98851.48
2022-12-26T19:13:24.970Z,98851.77
2022-12-26T19:15:51.925Z,98846.40
2022-12-26T19:18:18.913Z,98841.94
2022-12-26T19:20:45.913Z,98836.10
2022-12-26T19:23:12.850Z,98838.73
2022-12-26T19:25:39.914Z,98835.72
2022-12-26T19:28:07.062Z,98828.70
2022-12-26T19:30:38.815Z,98824.83
2022-12-26T19:33:07.182Z,98831.02
2022-12-26T19:35:35.208Z,98831.26
2022-12-26T19:38:02.394Z,98824.03
2022-12-26T19:40:31.605Z,98826.26
2022-12-26T19:43:01.426Z,98830.39
2022-12-26T19:45:28.546Z,98831.66
2022-12-26T19:47:55.602Z,98822.54
2022-12-26T19:50:22.648Z,98821.52
2022-12-26T19:52:49.535Z,98814.27
2022-12-26T19:55:16.954Z,98816.58
2022-12-26T19:57:43.945Z,98816.99
2022-12-26T20:00:11.866Z,98812.33
2022-12-26T20:02:41.920Z,98814.76
2022-12-26T20:05:09.313Z,98810.10
2022-12-26T20:07:36.284Z,98802.34
2022-12-26T20:10:04.397Z,98807.19
2022-12-26T20:12:31.505Z,98806.30
2022-12-26T20:14:58.555Z,98802.66
2022-12-26T20:17:25.559Z,98799.18
2022-12-26T20:19:52.549Z,98794.68
2022-12-26T20:22:19.637Z,98789.95
2022-12-26T20:24:47.373Z,98792.11
2022-12-26T20:27:14.485Z,98793.36
2022-12-26T20:29:41.418Z,98797.13
2022-12-26T20:32:08.802Z,98791.99
2022-12-26T20:34:35.869Z,98790.35
2022-12-26T20:37:03.109Z,98799.13
2022-12-26T20:39:32.132Z,98800.49
2022-12-26T20:42:03.426Z,98795.06
2022-12-26T20:44:30.492Z,98791.08
2022-12-26T20:46:57.380Z,98794.99
2022-12-26T20:49:24.380Z,98801.25
2022-12-26T20:51:51.324Z,98806.45
2022-12-26T20:54:18.401Z,98807.19
2022-12-26T20:56:45.424Z,98804.70
2022-12-26T20:59:12.406Z,98797.02
2022-12-26T21:01:40.450Z,98785.88
2022-12-26T21:04:08.277Z,98781.20
2022-12-26T21:06:37.089Z,98776.39
2022-12-26T21:09:04.952Z,98779.70
2022-12-26T21:11:33.990Z,98783.48
2022-12-26T21:14:10.425Z,98782.52
2022-12-26T21:16:42.843Z,98778.48
2022-12-26T21:19:15.063Z,98784.08
2022-12-26T21:21:47.648Z,98787.48
2022-12-26T21:24:19.949Z,98785.34
2022-12-26T21:26:47.257Z,98785.52
2022-12-26T21:29:16.717Z,98777.97
2022-12-26T21:31:43.714Z,98767.61
2022-12-26T21:34:11.869Z,98761.00
2022-12-26T21:36:39.358Z,98764.89
2022-12-26T21:39:07.923Z,98762.69
2022-12-26T21:41:36.628Z,98771.95
2022-12-26T21:44:03.652Z,98771.38
2022-12-26T21:46:30.834Z,98774.47
2022-12-26T21:48:57.869Z,98763.09
2022-12-26T21:51:28.983Z,98758.77
2022-12-26T21:54:15.855Z,98759.72
2022-12-26T21:56:43.047Z,98755.38
2022-12-26T21:59:28.953Z,98756.96
2022-12-26T22:01:56.162Z,98760.30
2022-12-26T22:04:23.944Z,98759.10
2022-12-26T22:06:51.326Z,98748.35
2022-12-26T22:09:18.455Z,98734.70
2022-12-26T22:12:04.985Z,98726.52
2022-12-26T22:14:32.022Z,98734.00
2022-12-26T22:16:58.943Z,98738.88
2022-12-26T22:19:26.274Z,98743.47
2022-12-26T22:21:54.088Z,98741.25
2022-12-26T22:24:22.141Z,98739.56
2022-12-26T22:26:49.401Z,98735.79
2022-12-26T22:29:16.657Z,98744.77
2022-12-26T22:31:43.634Z,98740.50
2022-12-26T22:34:12.824Z,98744.14
2022-12-26T22:36:40.654Z,98748.86
2022-12-26T22:39:07.811Z,98743.64
2022-12-26T22:41:36.172Z,98743.69
2022-12-26T22:44:03.227Z,98743.05
2022-12-26T22:46:30.238Z,98752.15
2022-12-26T22:48:57.430Z,98751.54
2022-12-26T22:51:25.315Z,98745.63
2022-12-26T22:53:56.640Z,98748.66
2022-12-26T22:56:23.636Z,98746.90
2022-12-26T22:59:00.835Z,98751.68
2022-12-26T23:01:28.149Z,98748.73
2022-12-26T23:03:55.353Z,98744.59
2022-12-26T23:06:23.896Z,98741.81
2022-12-26T23:08:53.473Z,98745.85
2022-12-26T23:11:21.779Z,98736.51
2022-12-26T23:13:49.223Z,98737.63
2022-12-26T23:16:32.671Z,98742.89
2022-12-26T23:19:20.447Z,98749.50
2022-12-26T23:21:50.530Z,98743.43
2022-12-26T23:24:19.681Z,98742.11
2022-12-26T23:26:55.189Z,98741.01
2022-12-26T23:29:41.955Z,98737.20
2022-12-26T23:32:10.000Z,98732.08
2022-12-26T23:34:36.955Z,98723.45
2022-12-26T23:37:04.002Z,98720.30
2022-12-26T23:39:31.039Z,98722.22
2022-12-26T23:41:57.919Z,98713.86
2022-12-26T23:44:24.938Z,98715.38
2022-12-26T23:46:52.004Z,98710.48
2022-12-26T23:49:18.984Z,98704.15
2022-12-26T23:51:46.215Z,98703.17
2022-12-26T23:54:13.220Z,98694.17
2022-12-26T23:56:40.282Z,98693.34
2022-12-26T23:59:07.319Z,98689.36
